To NAV CANADA Home Page Login to a new session Search on AWWS site Feedback and Comments Disclaimer Vers la page française équivalente Tips FAQ What's new on the site To the Forecasts and Observations / NOTAM section To "File a Flight Plan" website Publications and other links Update of the User's profile FIC Telephone Numbers My Weather Data Folder Route Weather Data Regional Weather Data Local Weather Data To the Forecasts and Observations / NOTAM section
Request Generated 04/23/2014 at 07:15:15 UTC . Weather information available at that time is displayed.

METAR/TAF

LA RONGE/LA RONGE (BARBER FIELD)/SK    

METAR CYVC 230700Z 06009KT 15SM FEW070 05/M03 A2991 RMK AC2 SLP143=
METAR CYVC 230600Z 06010KT 15SM FEW070 05/M03 A2991 RMK AC1 SLP142=
METAR CYVC 230500Z 07010KT 15SM SCT070 07/M03 A2991 RMK AC3 SLP144=

TAF CYVC 230638Z 2307/2319 06012KT P6SM FEW070
RMK NXT FCST BY 231300Z=
Your time UTC time
Weather data provided by Environment Canada and NAV CANADA